Time,TemperatureF,DewpointF,PressureIn,WindDirection,WindDirectionDegrees,WindSpeedMPH,WindSpeedGustMPH,Humidity,HourlyPrecipIn,Conditions,Clouds,dailyrainin,SoftwareType,DateUTC
2013-09-21 00:02:00,-999.0,-99.9,-100.00,South,185,11.0,-999.0,-999,-99.99,,,-99.99,,2013-09-21 07:02:00,
2013-09-21 00:11:00,-999.0,-99.9,-100.00,South,174,12.0,-999.0,-999,-99.99,,,-99.99,,2013-09-21 07:11:00,
2013-09-21 00:22:00,-999.0,-99.9,-100.00,SSE,168,8.0,-999.0,-999,-99.99,,,-99.99,,2013-09-21 07:22:00,
2013-09-21 00:32:00,-999.0,-99.9,-100.00,South,180,9.0,-999.0,-999,-99.99,,,-99.99,,2013-09-21 07:32:00,
2013-09-21 00:42:00,-999.0,-99.9,-100.00,South,180,9.0,-999.0,-999,-99.99,,,-99.99,,2013-09-21 07:42:00,
2013-09-21 00:52:00,-999.0,-99.9,-100.00,South,191,7.0,-999.0,-999,-99.99,,,-99.99,,2013-09-21 07:52:00,
2013-09-21 01:03:00,-999.0,-99.9,-100.00,South,191,7.0,-999.0,-999,-99.99,,,-99.99,,2013-09-21 08:03:00,
2013-09-21 01:22:00,-999.0,-99.9,-100.00,North,-999,2.0,-999.0,-999,-99.99,,,-99.99,,2013-09-21 08:22:00,
2013-09-21 01:32:00,-999.0,-99.9,-100.00,North,-999,2.0,-999.0,-999,-99.99,,,-99.99,,2013-09-21 08:32:00,
2013-09-21 01:52:00,81.0,-99.9,-100.00,North,-999,-999.0,-999.0,-999,-99.99,,,-99.99,,2013-09-21 08:52:00,
2013-09-21 02:02:00,81.0,-99.9,-100.00,North,-999,-999.0,-999.0,-999,-99.99,,,-99.99,,2013-09-21 09:02:00,
2013-09-21 02:11:00,81.0,-99.9,-100.00,North,-999,-999.0,-999.0,-999,-99.99,,,-99.99,,2013-09-21 09:11:00,
2013-09-21 02:22:00,83.0,-99.9,-100.00,North,-999,1.0,-999.0,-999,-99.99,,,-99.99,,2013-09-21 09:22:00,
2013-09-21 02:33:00,83.0,-99.9,-100.00,North,-999,1.0,-999.0,-999,-99.99,,,-99.99,,2013-09-21 09:33:00,
2013-09-21 02:43:00,83.0,-99.9,-100.00,North,-999,1.0,-999.0,-999,-99.99,,,-99.99,,2013-09-21 09:43:00,
2013-09-21 02:54:00,81.0,-99.9,-100.00,North,-999,-999.0,-999.0,-999,-99.99,,,-99.99,,2013-09-21 09:54:00,
2013-09-21 03:03:00,81.0,-99.9,-100.00,North,-999,-999.0,-999.0,-999,-99.99,,,-99.99,,2013-09-21 10:03:00,
2013-09-21 03:12:00,81.0,-99.9,-100.00,North,-999,-999.0,-999.0,-999,-99.99,,,-99.99,,2013-09-21 10:12:00,
2013-09-21 03:23:00,81.0,-99.9,-100.00,North,-999,-999.0,-999.0,-999,-99.99,,,-99.99,,2013-09-21 10:23:00,
2013-09-21 04:23:00,79.0,42.0,-100.00,North,-999,1.0,-999.0,26,-99.99,,,-99.99,,2013-09-21 11:23:00,
2013-09-21 04:33:00,79.0,42.0,-100.00,North,-999,1.0,-999.0,26,-99.99,,,-99.99,,2013-09-21 11:33:00,
2013-09-21 05:12:00,-999.0,-99.9,-100.00,SSE,157,8.0,-999.0,-999,-99.99,,,-99.99,,2013-09-21 12:12:00,
2013-09-21 06:53:00,74.0,-99.9,-100.00,North,-999,-999.0,-999.0,-999,-99.99,,,-99.99,,2013-09-21 13:53:00,
2013-09-21 07:02:00,74.0,-99.9,-100.00,North,-999,-999.0,-999.0,-999,-99.99,,,-99.99,,2013-09-21 14:02:00,
2013-09-21 07:11:00,74.0,-99.9,-100.00,North,-999,-999.0,-999.0,-999,-99.99,,,-99.99,,2013-09-21 14:11:00,
2013-09-21 07:42:00,80.0,-99.9,-100.00,North,-999,-999.0,-999.0,-999,-99.99,,,-99.99,,2013-09-21 14:42:00,
2013-09-21 08:55:00,85.0,-99.9,-100.00,North,-999,-999.0,-999.0,-999,-99.99,,,-99.99,,2013-09-21 15:55:00,
2013-09-21 09:05:00,85.0,-99.9,-100.00,North,-999,-999.0,-999.0,-999,-99.99,,,-99.99,,2013-09-21 16:05:00,
2013-09-21 09:14:00,-999.0,-99.9,-100.00,SSE,157,0.0,-999.0,-999,-99.99,,,-99.99,,2013-09-21 16:14:00,
2013-09-21 09:24:00,-999.0,-99.9,-100.00,SSE,157,9.0,-999.0,-999,-99.99,,,-99.99,,2013-09-21 16:24:00,
2013-09-21 09:34:00,-999.0,-99.9,-100.00,SE,146,8.0,-999.0,-999,-99.99,,,-99.99,,2013-09-21 16:34:00,
2013-09-21 09:54:00,-999.0,-99.9,-100.00,SE,135,10.0,-999.0,-999,-99.99,,,-99.99,,2013-09-21 16:54:00,
2013-09-21 10:03:00,-999.0,-99.9,-100.00,SE,135,10.0,-999.0,-999,-99.99,,,-99.99,,2013-09-21 17:03:00,
2013-09-21 10:12:00,-999.0,-99.9,-100.00,SSE,151,9.0,-999.0,-999,-99.99,,,-99.99,,2013-09-21 17:12:00,
2013-09-21 10:23:00,-999.0,-99.9,-100.00,SE,129,8.0,-999.0,-999,-99.99,,,-99.99,,2013-09-21 17:23:00,
2013-09-21 10:34:00,-999.0,-99.9,-100.00,SE,129,10.0,-999.0,-999,-99.99,,,-99.99,,2013-09-21 17:34:00,
2013-09-21 10:43:00,-999.0,-99.9,-100.00,SE,146,11.0,-999.0,-999,-99.99,,,-99.99,,2013-09-21 17:43:00,
2013-09-21 10:53:00,-999.0,-99.9,-100.00,SSE,157,7.0,-999.0,-999,-99.99,,,-99.99,,2013-09-21 17:53:00,
2013-09-21 11:02:00,-999.0,-99.9,-100.00,SSE,157,7.0,-999.0,-999,-99.99,,,-99.99,,2013-09-21 18:02:00,
2013-09-21 11:13:00,-999.0,-99.9,-100.00,SSE,157,7.0,-999.0,-999,-99.99,,,-99.99,,2013-09-21 18:13:00,
2013-09-21 11:22:00,-999.0,-99.9,-100.00,South,180,12.0,-999.0,-999,-99.99,,,-99.99,,2013-09-21 18:22:00,
2013-09-21 11:33:00,-999.0,-99.9,-100.00,South,180,12.0,-999.0,-999,-99.99,,,-99.99,,2013-09-21 18:33:00,
2013-09-21 11:42:00,-999.0,-99.9,-100.00,SSE,163,13.0,-999.0,-999,-99.99,,,-99.99,,2013-09-21 18:42:00,
2013-09-21 11:52:00,-999.0,-99.9,-100.00,SSW,202,12.0,-999.0,-999,-99.99,,,-99.99,,2013-09-21 18:52:00,
2013-09-21 12:02:00,-999.0,-99.9,-100.00,SSW,202,12.0,-999.0,-999,-99.99,,,-99.99,,2013-09-21 19:02:00,
2013-09-21 12:12:00,-999.0,-99.9,-100.00,SSW,202,12.0,-999.0,-999,-99.99,,,-99.99,,2013-09-21 19:12:00,
2013-09-21 12:22:00,-999.0,-99.9,-100.00,South,185,13.0,-999.0,-999,-99.99,,,-99.99,,2013-09-21 19:22:00,
2013-09-21 12:32:00,-999.0,-99.9,-100.00,SE,140,13.0,-999.0,-999,-99.99,,,-99.99,,2013-09-21 19:32:00,
2013-09-21 12:42:00,-999.0,-99.9,-100.00,South,180,14.0,-999.0,-999,-99.99,,,-99.99,,2013-09-21 19:42:00,
2013-09-21 12:52:00,-999.0,-99.9,-100.00,SSE,163,15.0,-999.0,-999,-99.99,,,-99.99,,2013-09-21 19:52:00,
2013-09-21 13:02:00,-999.0,-99.9,-100.00,SSE,163,16.0,-999.0,-999,-99.99,,,-99.99,,2013-09-21 20:02:00,
2013-09-21 13:12:00,-999.0,-99.9,-100.00,South,180,16.0,-999.0,-999,-99.99,,,-99.99,,2013-09-21 20:12:00,
2013-09-21 13:22:00,-999.0,-99.9,-100.00,SSE,168,19.0,-999.0,-999,-99.99,,,-99.99,,2013-09-21 20:22:00,
2013-09-21 13:32:00,-999.0,-99.9,-100.00,South,180,18.0,-999.0,-999,-99.99,,,-99.99,,2013-09-21 20:32:00,
2013-09-21 13:43:00,-999.0,-99.9,-100.00,SSW,213,11.0,-999.0,-999,-99.99,,,-99.99,,2013-09-21 20:43:00,
2013-09-21 13:52:00,-999.0,-99.9,-100.00,WSW,247,13.0,-999.0,-999,-99.99,,,-99.99,,2013-09-21 20:52:00,
2013-09-21 14:02:00,-999.0,-99.9,-100.00,WSW,247,13.0,-999.0,-999,-99.99,,,-99.99,,2013-09-21 21:02:00,
2013-09-21 14:12:00,-999.0,-99.9,-100.00,SW,236,13.0,-999.0,-999,-99.99,,,-99.99,,2013-09-21 21:12:00,
2013-09-21 14:22:00,-999.0,-99.9,-100.00,WSW,247,14.0,-999.0,-999,-99.99,,,-99.99,,2013-09-21 21:22:00,
2013-09-21 14:34:00,-999.0,-99.9,-100.00,South,191,12.0,-999.0,-999,-99.99,,,-99.99,,2013-09-21 21:34:00,
2013-09-21 14:45:00,-999.0,-99.9,-100.00,SSW,208,15.0,-999.0,-999,-99.99,,,-99.99,,2013-09-21 21:45:00,
2013-09-21 14:54:00,-999.0,-99.9,-100.00,SW,230,12.0,-999.0,-999,-99.99,,,-99.99,,2013-09-21 21:54:00,
2013-09-21 15:05:00,-999.0,-99.9,-100.00,SW,230,12.0,-999.0,-999,-99.99,,,-99.99,,2013-09-21 22:05:00,
2013-09-21 15:14:00,-999.0,-99.9,-100.00,SSW,208,16.0,-999.0,-999,-99.99,,,-99.99,,2013-09-21 22:14:00,
2013-09-21 15:24:00,-999.0,-99.9,-100.00,SW,230,9.0,-999.0,-999,-99.99,,,-99.99,,2013-09-21 22:24:00,
2013-09-21 15:33:00,-999.0,-99.9,-100.00,South,174,10.0,-999.0,-999,-99.99,,,-99.99,,2013-09-21 22:33:00,
2013-09-21 15:43:00,-999.0,-99.9,-100.00,SSW,213,17.0,-999.0,-999,-99.99,,,-99.99,,2013-09-21 22:43:00,
2013-09-21 15:53:00,-999.0,-99.9,-100.00,WSW,258,16.0,-999.0,-999,-99.99,,,-99.99,,2013-09-21 22:53:00,
2013-09-21 16:03:00,-999.0,-99.9,-100.00,SW,219,11.0,-999.0,-999,-99.99,,,-99.99,,2013-09-21 23:03:00,
2013-09-21 16:13:00,-999.0,-99.9,-100.00,SW,219,11.0,-999.0,-999,-99.99,,,-99.99,,2013-09-21 23:13:00,
2013-09-21 16:23:00,-999.0,-99.9,-100.00,SW,236,13.0,-999.0,-999,-99.99,,,-99.99,,2013-09-21 23:23:00,
2013-09-21 16:34:00,-999.0,-99.9,-100.00,SW,236,16.0,-999.0,-999,-99.99,,,-99.99,,2013-09-21 23:34:00,
2013-09-21 16:42:00,-999.0,-99.9,-100.00,SW,230,15.0,-999.0,-999,-99.99,,,-99.99,,2013-09-21 23:42:00,
2013-09-21 16:53:00,-999.0,-99.9,-100.00,SW,236,18.0,-999.0,-999,-99.99,,,-99.99,,2013-09-21 23:53:00,
2013-09-21 17:02:00,-999.0,-99.9,-100.00,SW,236,18.0,-999.0,-999,-99.99,,,-99.99,,2013-09-22 00:02:00,
2013-09-21 17:12:00,-999.0,-99.9,-100.00,SW,225,14.0,-999.0,-999,-99.99,,,-99.99,,2013-09-22 00:12:00,
2013-09-21 17:23:00,-999.0,-99.9,-100.00,WSW,258,12.0,-999.0,-999,-99.99,,,-99.99,,2013-09-22 00:23:00,
2013-09-21 17:32:00,-999.0,-99.9,-100.00,WSW,241,13.0,-999.0,-999,-99.99,,,-99.99,,2013-09-22 00:32:00,
2013-09-21 17:43:00,-999.0,-99.9,-100.00,WSW,241,13.0,-999.0,-999,-99.99,,,-99.99,,2013-09-22 00:43:00,
2013-09-21 17:52:00,-999.0,-99.9,-100.00,WSW,253,14.0,-999.0,-999,-99.99,,,-99.99,,2013-09-22 00:52:00,
2013-09-21 18:02:00,-999.0,-99.9,-100.00,WSW,253,12.0,-999.0,-999,-99.99,,,-99.99,,2013-09-22 01:02:00,
2013-09-21 18:12:00,-999.0,-99.9,-100.00,West,264,9.0,-999.0,-999,-99.99,,,-99.99,,2013-09-22 01:12:00,
2013-09-21 18:22:00,-999.0,-99.9,-100.00,SSW,213,11.0,-999.0,-999,-99.99,,,-99.99,,2013-09-22 01:22:00,
2013-09-21 18:32:00,-999.0,-99.9,-100.00,West,270,8.0,-999.0,-999,-99.99,,,-99.99,,2013-09-22 01:32:00,
2013-09-21 19:22:00,90.0,-99.9,-100.00,West,264,6.0,-999.0,-999,-99.99,,,-99.99,,2013-09-22 02:22:00,
2013-09-21 19:32:00,-999.0,-99.9,-100.00,WSW,247,6.0,-999.0,-999,-99.99,,,-99.99,,2013-09-22 02:32:00,
2013-09-21 19:42:00,-999.0,-99.9,-100.00,SW,236,3.0,-999.0,-999,-99.99,,,-99.99,,2013-09-22 02:42:00,
2013-09-21 19:52:00,-999.0,-99.9,-100.00,West,264,6.0,-999.0,-999,-99.99,,,-99.99,,2013-09-22 02:52:00,
2013-09-21 20:02:00,-999.0,-99.9,-100.00,West,264,6.0,-999.0,-999,-99.99,,,-99.99,,2013-09-22 03:02:00,
2013-09-21 20:12:00,-999.0,-99.9,-100.00,WSW,247,10.0,-999.0,-999,-99.99,,,-99.99,,2013-09-22 03:12:00,
2013-09-21 20:22:00,-999.0,-99.9,-100.00,SSW,213,12.0,-999.0,-999,-99.99,,,-99.99,,2013-09-22 03:22:00,
2013-09-21 20:34:00,-999.0,-99.9,-100.00,WSW,258,8.0,-999.0,-999,-99.99,,,-99.99,,2013-09-22 03:34:00,
2013-09-21 20:45:00,-999.0,-99.9,-100.00,WSW,253,8.0,-999.0,-999,-99.99,,,-99.99,,2013-09-22 03:45:00,
2013-09-21 20:54:00,-999.0,-99.9,-100.00,WSW,253,13.0,-999.0,-999,-99.99,,,-99.99,,2013-09-22 03:54:00,
2013-09-21 21:03:00,-999.0,-99.9,-100.00,WSW,253,13.0,-999.0,-999,-99.99,,,-99.99,,2013-09-22 04:03:00,
2013-09-21 21:15:00,-999.0,-99.9,-100.00,WSW,241,12.0,-999.0,-999,-99.99,,,-99.99,,2013-09-22 04:15:00,
2013-09-21 21:44:00,-999.0,-99.9,-100.00,WSW,258,10.0,-999.0,-999,-99.99,,,-99.99,,2013-09-22 04:44:00,
2013-09-21 21:54:00,-999.0,-99.9,-100.00,SW,230,11.0,-999.0,-999,-99.99,,,-99.99,,2013-09-22 04:54:00,
2013-09-21 22:03:00,-999.0,-99.9,-100.00,WSW,247,13.0,-999.0,-999,-99.99,,,-99.99,,2013-09-22 05:03:00,
2013-09-21 22:13:00,-999.0,-99.9,-100.00,WSW,241,12.0,-999.0,-999,-99.99,,,-99.99,,2013-09-22 05:13:00,
2013-09-21 22:23:00,-999.0,-99.9,-100.00,SW,225,11.0,-999.0,-999,-99.99,,,-99.99,,2013-09-22 05:23:00,
2013-09-21 22:35:00,-999.0,-99.9,-100.00,SSW,202,13.0,-999.0,-999,-99.99,,,-99.99,,2013-09-22 05:35:00,
2013-09-21 22:43:00,-999.0,-99.9,-100.00,WSW,241,14.0,-999.0,-999,-99.99,,,-99.99,,2013-09-22 05:43:00,
2013-09-21 23:02:00,-999.0,-99.9,-100.00,SSW,208,11.0,-999.0,-999,-99.99,,,-99.99,,2013-09-22 06:02:00,
2013-09-21 23:12:00,-999.0,-99.9,-100.00,SW,225,9.0,-999.0,-999,-99.99,,,-99.99,,2013-09-22 06:12:00,
2013-09-21 23:22:00,-999.0,-99.9,-100.00,SSW,202,8.0,-999.0,-999,-99.99,,,-99.99,,2013-09-22 06:22:00,
2013-09-21 23:32:00,-999.0,-99.9,-100.00,SSW,202,8.0,-999.0,-999,-99.99,,,-99.99,,2013-09-22 06:32:00,
2013-09-21 23:42:00,-999.0,-99.9,-100.00,SSW,202,8.0,-999.0,-999,-99.99,,,-99.99,,2013-09-22 06:42:00,
2013-09-21 23:52:00,-999.0,-99.9,-100.00,WSW,258,12.0,-999.0,-999,-99.99,,,-99.99,,2013-09-22 06:52:00,